createdAt,value
2022-12-17T00:02:46.780Z,7.37
2022-12-17T00:05:32.992Z,6.13
2022-12-17T00:08:24.438Z,5.10
2022-12-17T00:11:09.948Z,7.07
2022-12-17T00:13:55.660Z,5.60
2022-12-17T00:16:42.382Z,5.57
2022-12-17T00:19:29.509Z,5.43
2022-12-17T00:22:15.126Z,4.40
2022-12-17T00:25:00.770Z,4.00
2022-12-17T00:27:46.117Z,3.73
2022-12-17T00:30:31.007Z,3.70
2022-12-17T00:33:16.403Z,4.20
2022-12-17T00:36:08.928Z,2.97
2022-12-17T00:38:54.637Z,2.90
2022-12-17T00:41:42.731Z,2.50
2022-12-17T00:44:28.504Z,2.67
2022-12-17T00:47:16.680Z,2.23
2022-12-17T00:50:02.646Z,2.83
2022-12-17T00:52:49.979Z,2.67
2022-12-17T00:55:35.653Z,6.17
2022-12-17T00:58:21.072Z,3.00
2022-12-17T01:01:06.578Z,3.03
2022-12-17T01:03:52.485Z,3.57
2022-12-17T01:06:38.207Z,2.80
2022-12-17T01:09:25.471Z,4.83
2022-12-17T01:12:10.930Z,3.23
2022-12-17T01:14:56.620Z,2.13
2022-12-17T01:17:42.271Z,2.90
2022-12-17T01:20:28.855Z,3.43
2022-12-17T01:23:14.429Z,3.07
2022-12-17T01:25:58.002Z,2.87
2022-12-17T01:28:44.643Z,3.50
2022-12-17T01:31:34.917Z,3.27
2022-12-17T01:34:21.501Z,2.20
2022-12-17T01:37:07.430Z,3.13
2022-12-17T01:39:53.408Z,2.90
2022-12-17T01:42:45.868Z,2.53
2022-12-17T01:45:32.764Z,2.60
2022-12-17T01:48:22.621Z,4.30
2022-12-17T01:51:12.329Z,4.40
2022-12-17T01:54:02.172Z,4.97
2022-12-17T01:56:48.179Z,3.83
2022-12-17T01:59:42.382Z,2.80
2022-12-17T02:02:27.944Z,6.53
2022-12-17T02:05:14.081Z,3.60
2022-12-17T02:08:10.268Z,5.77
2022-12-17T02:11:03.001Z,2.87
2022-12-17T02:13:53.275Z,2.50
2022-12-17T02:16:45.195Z,4.07
2022-12-17T02:19:40.435Z,3.20
2022-12-17T02:22:35.849Z,6.43
2022-12-17T02:25:30.576Z,4.33
2022-12-17T02:28:17.987Z,4.97
2022-12-17T02:31:04.130Z,5.70
2022-12-17T02:33:50.178Z,5.63
2022-12-17T02:36:36.354Z,5.73
2022-12-17T02:39:22.586Z,6.07
2022-12-17T02:42:12.074Z,6.10
2022-12-17T02:45:01.316Z,6.10
2022-12-17T02:47:48.110Z,6.27
2022-12-17T02:50:34.405Z,6.57
2022-12-17T02:53:21.965Z,6.57
2022-12-17T02:56:08.021Z,6.70
2022-12-17T02:58:54.185Z,6.80
2022-12-17T03:01:41.544Z,6.87
2022-12-17T03:04:27.872Z,6.10
2022-12-17T03:07:14.098Z,6.03
2022-12-17T03:10:00.170Z,6.30
2022-12-17T03:12:46.330Z,6.17
2022-12-17T03:15:32.654Z,6.73
2022-12-17T03:18:20.091Z,8.17
2022-12-17T03:21:06.458Z,8.83
2022-12-17T03:23:52.590Z,9.43
2022-12-17T03:26:38.661Z,8.73
2022-12-17T03:29:24.844Z,7.53
2022-12-17T03:32:11.105Z,7.90
2022-12-17T03:34:58.448Z,7.23
2022-12-17T03:37:44.625Z,8.43
2022-12-17T03:40:30.796Z,10.87
2022-12-17T03:43:16.289Z,9.50
2022-12-17T03:46:01.889Z,7.67
2022-12-17T03:48:47.363Z,7.53
2022-12-17T03:51:34.331Z,6.60
2022-12-17T03:54:25.710Z,6.63
2022-12-17T03:57:15.889Z,6.37
2022-12-17T04:00:02.193Z,5.80
2022-12-17T04:02:47.872Z,5.73
2022-12-17T04:05:33.916Z,5.90
2022-12-17T04:08:21.021Z,5.53
2022-12-17T04:11:07.047Z,5.53
2022-12-17T04:13:52.739Z,5.53
2022-12-17T04:16:38.436Z,6.00
2022-12-17T04:19:24.175Z,5.97
2022-12-17T04:22:09.860Z,5.50
2022-12-17T04:25:02.575Z,5.30
2022-12-17T04:27:48.266Z,6.13
2022-12-17T04:30:33.342Z,5.03
2022-12-17T04:33:18.805Z,5.20
2022-12-17T04:36:04.477Z,6.60
2022-12-17T04:38:49.919Z,6.87
2022-12-17T04:41:37.333Z,4.30
2022-12-17T04:44:23.199Z,4.17
2022-12-17T04:47:09.287Z,5.10
2022-12-17T04:49:56.101Z,3.77
2022-12-17T04:52:41.815Z,3.47
2022-12-17T04:55:27.692Z,4.03
2022-12-17T04:58:20.758Z,4.10
2022-12-17T05:01:08.560Z,5.27
2022-12-17T05:03:54.033Z,6.63
2022-12-17T05:06:40.169Z,14.10
2022-12-17T05:09:26.007Z,23.60
2022-12-17T05:12:11.848Z,27.80
2022-12-17T05:14:59.059Z,21.57
2022-12-17T05:17:44.962Z,14.23
2022-12-17T05:20:30.691Z,11.23
2022-12-17T05:23:23.826Z,7.43
2022-12-17T05:26:14.339Z,5.93
2022-12-17T05:29:00.152Z,5.60
2022-12-17T05:31:52.646Z,7.60
2022-12-17T05:34:38.736Z,4.43
2022-12-17T05:37:24.157Z,3.90
2022-12-17T05:40:12.666Z,3.83
2022-12-17T05:42:58.421Z,4.10
2022-12-17T05:45:44.413Z,3.77
2022-12-17T05:48:46.114Z,3.67
2022-12-17T05:51:37.037Z,3.67
2022-12-17T05:54:24.856Z,4.90
2022-12-17T05:57:10.873Z,3.97
2022-12-17T05:59:56.885Z,3.90
2022-12-17T06:02:43.003Z,4.60
2022-12-17T06:05:30.784Z,4.70
2022-12-17T06:08:21.770Z,4.13
2022-12-17T06:11:07.193Z,4.77
2022-12-17T06:13:53.237Z,4.57
2022-12-17T06:16:38.874Z,4.00
2022-12-17T06:19:24.527Z,3.70
2022-12-17T06:22:11.305Z,4.53
2022-12-17T06:24:56.840Z,4.67
2022-12-17T06:27:42.702Z,4.67
2022-12-17T06:30:29.248Z,6.07
2022-12-17T06:33:23.355Z,4.17
2022-12-17T06:36:10.989Z,4.00
2022-12-17T06:38:58.218Z,4.67
2022-12-17T06:41:43.614Z,6.30
2022-12-17T06:44:29.376Z,5.67
2022-12-17T06:47:15.047Z,6.07
2022-12-17T06:50:03.565Z,5.30
2022-12-17T06:52:49.152Z,4.97
2022-12-17T06:55:36.949Z,5.67
2022-12-17T06:58:22.920Z,5.70
2022-12-17T07:01:10.314Z,6.73
2022-12-17T07:03:55.940Z,7.20
2022-12-17T07:06:41.423Z,5.83
2022-12-17T07:09:27.103Z,6.00
2022-12-17T07:12:14.418Z,6.27
2022-12-17T07:15:00.200Z,5.40
2022-12-17T07:17:45.898Z,5.10
2022-12-17T07:20:31.890Z,5.37
2022-12-17T07:23:17.705Z,5.03
2022-12-17T07:26:03.536Z,4.57
2022-12-17T07:28:50.602Z,4.60
2022-12-17T07:31:36.379Z,6.37
2022-12-17T07:34:23.513Z,8.30
2022-12-17T07:37:09.442Z,7.90
2022-12-17T07:40:06.564Z,9.27
2022-12-17T07:42:52.149Z,8.93
2022-12-17T07:45:39.623Z,10.00
2022-12-17T07:48:25.606Z,13.80
2022-12-17T07:51:11.556Z,12.77
2022-12-17T07:53:57.141Z,12.27
2022-12-17T07:56:43.274Z,11.40
2022-12-17T07:59:29.264Z,14.50
2022-12-17T08:02:16.933Z,21.80
2022-12-17T08:05:02.764Z,18.83
2022-12-17T08:07:48.508Z,16.33
2022-12-17T08:10:31.069Z,13.53
2022-12-17T08:13:18.633Z,15.13
2022-12-17T08:16:04.596Z,18.97
2022-12-17T08:18:51.697Z,18.50
2022-12-17T08:21:37.786Z,19.23
2022-12-17T08:24:24.035Z,26.90
2022-12-17T08:27:10.007Z,22.70
2022-12-17T08:29:56.157Z,20.43
2022-12-17T08:32:43.323Z,17.73
2022-12-17T08:35:30.911Z,15.53
2022-12-17T08:38:20.523Z,14.03
2022-12-17T08:41:06.172Z,11.47
2022-12-17T08:43:57.483Z,11.20
2022-12-17T08:46:43.455Z,9.83
2022-12-17T08:49:29.060Z,7.87
2022-12-17T08:52:16.261Z,9.27
2022-12-17T08:55:02.000Z,10.23
2022-12-17T08:57:54.958Z,12.53
2022-12-17T09:00:40.849Z,11.60
2022-12-17T09:03:27.550Z,9.53
2022-12-17T09:06:17.904Z,8.30
2022-12-17T09:09:05.361Z,9.23
2022-12-17T09:11:51.314Z,28.27
2022-12-17T09:14:36.996Z,30.70
2022-12-17T09:17:22.710Z,28.13
2022-12-17T09:20:08.200Z,26.87
2022-12-17T09:22:54.127Z,19.10
2022-12-17T09:25:41.368Z,14.70
2022-12-17T09:28:27.222Z,12.87
2022-12-17T09:31:18.032Z,13.20
2022-12-17T09:34:03.970Z,11.03
2022-12-17T09:37:01.191Z,11.03
2022-12-17T09:39:47.030Z,10.33
2022-12-17T09:42:41.348Z,8.77
2022-12-17T09:45:36.456Z,7.07
2022-12-17T09:48:32.371Z,5.00
2022-12-17T09:51:18.964Z,4.97
2022-12-17T09:54:07.403Z,4.87
2022-12-17T09:56:55.925Z,6.50
2022-12-17T09:59:47.295Z,8.57
2022-12-17T10:02:37.025Z,8.30
2022-12-17T10:05:27.082Z,6.57
2022-12-17T10:08:13.740Z,7.47
2022-12-17T10:11:03.521Z,6.30
2022-12-17T10:13:49.775Z,6.90
2022-12-17T10:16:46.519Z,6.63
2022-12-17T10:19:35.233Z,6.20
2022-12-17T10:22:29.128Z,6.03
2022-12-17T10:25:15.551Z,7.30
2022-12-17T10:28:01.014Z,5.97
2022-12-17T10:30:56.124Z,5.53
2022-12-17T10:33:43.091Z,5.60
2022-12-17T10:36:40.838Z,5.97
2022-12-17T10:39:34.130Z,5.77
2022-12-17T10:42:20.332Z,5.80
2022-12-17T10:45:06.211Z,7.23
2022-12-17T10:47:52.757Z,7.37
2022-12-17T10:50:41.779Z,3.87
2022-12-17T10:53:38.255Z,7.67
2022-12-17T10:56:24.548Z,5.97
2022-12-17T10:59:12.997Z,5.03
2022-12-17T11:02:00.895Z,4.60
2022-12-17T11:04:48.998Z,3.20
2022-12-17T11:07:51.433Z,3.33
2022-12-17T11:10:40.734Z,5.38
2022-12-17T11:13:30.251Z,6.10
2022-12-17T11:16:17.756Z,5.70
2022-12-17T11:19:10.021Z,5.55
2022-12-17T11:22:00.698Z,4.60
2022-12-17T11:24:54.073Z,4.45
2022-12-17T11:27:46.619Z,5.03
2022-12-17T11:30:34.603Z,6.05
2022-12-17T11:33:28.769Z,7.95
2022-12-17T11:36:25.798Z,6.95
2022-12-17T11:39:19.205Z,8.52
2022-12-17T11:42:16.172Z,8.25
2022-12-17T11:45:11.327Z,4.45
2022-12-17T11:48:13.079Z,6.90
2022-12-17T11:53:40.852Z,6.35
2022-12-17T11:56:45.579Z,8.85
2022-12-17T11:59:50.890Z,9.10
2022-12-17T12:02:58.041Z,9.85
2022-12-17T12:05:54.891Z,8.98
2022-12-17T12:08:45.836Z,6.95
2022-12-17T12:11:47.219Z,5.88
2022-12-17T12:14:15.684Z,6.25
2022-12-17T12:17:12.644Z,6.57
2022-12-17T12:20:06.946Z,6.22
2022-12-17T12:23:00.409Z,4.45
2022-12-17T12:28:50.583Z,7.32
2022-12-17T12:31:45.865Z,9.70
2022-12-17T12:34:37.392Z,10.05
2022-12-17T12:37:24.565Z,7.18
2022-12-17T12:40:16.008Z,5.55
2022-12-17T12:43:08.523Z,6.68
2022-12-17T12:46:04.496Z,4.15
2022-12-17T12:48:57.676Z,6.38
2022-12-17T12:51:47.548Z,4.88
2022-12-17T12:54:42.391Z,4.78
2022-12-17T12:57:48.371Z,4.18
2022-12-17T13:00:50.088Z,4.82
2022-12-17T13:03:54.929Z,4.40
2022-12-17T13:06:46.721Z,4.78
2022-12-17T13:09:34.766Z,7.10
2022-12-17T13:12:31.328Z,4.57
2022-12-17T13:15:27.740Z,4.82
2022-12-17T13:18:08.224Z,7.80
2022-12-17T13:20:36.796Z,9.38
2022-12-17T13:23:32.541Z,6.78
2022-12-17T13:26:18.173Z,4.68
2022-12-17T13:28:59.528Z,5.32
2022-12-17T13:31:29.580Z,6.60
2022-12-17T13:34:09.657Z,7.35
2022-12-17T13:36:49.414Z,6.55
2022-12-17T13:40:31.688Z,5.85
2022-12-17T13:43:03.883Z,4.68
2022-12-17T13:45:36.380Z,7.43
2022-12-17T13:48:05.329Z,6.30
2022-12-17T13:50:35.132Z,7.45
2022-12-17T13:53:11.849Z,5.43
2022-12-17T13:55:41.226Z,6.40
2022-12-17T13:58:24.413Z,6.68
2022-12-17T14:01:05.514Z,6.88
2022-12-17T14:08:58.668Z,3.88
2022-12-17T14:11:45.227Z,8.15
2022-12-17T14:14:24.625Z,5.03
2022-12-17T14:16:53.050Z,8.63
2022-12-17T14:19:21.621Z,6.93
2022-12-17T14:22:27.673Z,7.07
2022-12-17T14:24:56.092Z,5.22
2022-12-17T14:27:27.517Z,4.53
2022-12-17T14:29:57.233Z,7.18
2022-12-17T14:32:27.906Z,8.65
2022-12-17T14:35:00.616Z,7.35
2022-12-17T14:37:30.346Z,6.00
2022-12-17T14:40:04.433Z,7.35
2022-12-17T14:42:37.447Z,6.38
2022-12-17T14:45:21.954Z,7.50
2022-12-17T14:47:55.608Z,8.55
2022-12-17T14:50:33.444Z,26.87
2022-12-17T14:53:03.758Z,19.30
2022-12-17T14:55:37.991Z,7.38
2022-12-17T14:58:21.073Z,6.10
2022-12-17T15:00:54.661Z,5.88
2022-12-17T15:03:27.043Z,9.27
2022-12-17T15:05:59.916Z,11.93
2022-12-17T15:08:31.880Z,16.88
2022-12-17T15:11:00.213Z,22.30
2022-12-17T15:13:28.619Z,23.67
2022-12-17T15:15:59.352Z,21.53
2022-12-17T15:18:27.674Z,22.60
2022-12-17T15:20:55.976Z,22.90
2022-12-17T15:23:25.866Z,22.47
2022-12-17T15:25:55.916Z,19.73
2022-12-17T15:28:25.062Z,21.37
2022-12-17T15:30:53.677Z,19.23
2022-12-17T15:33:23.472Z,18.13
2022-12-17T15:35:51.809Z,17.70
2022-12-17T15:38:20.162Z,17.07
2022-12-17T15:40:48.566Z,15.90
2022-12-17T15:43:16.316Z,16.63
2022-12-17T15:45:46.269Z,20.03
2022-12-17T15:48:16.258Z,17.43
2022-12-17T15:50:46.691Z,17.77
2022-12-17T15:53:15.865Z,44.27
2022-12-17T15:55:45.200Z,37.27
2022-12-17T15:58:14.238Z,32.23
2022-12-17T16:00:43.479Z,25.70
2022-12-17T16:03:12.760Z,17.10
2022-12-17T16:05:41.682Z,12.23
2022-12-17T16:08:12.106Z,11.13
2022-12-17T16:10:40.716Z,10.03
2022-12-17T16:13:09.001Z,9.80
2022-12-17T16:15:37.427Z,8.83
2022-12-17T16:18:05.863Z,10.93
2022-12-17T16:20:34.299Z,15.10
2022-12-17T16:23:02.594Z,18.47
2022-12-17T16:25:32.482Z,25.67
2022-12-17T16:28:00.937Z,25.20
2022-12-17T16:30:29.257Z,18.57
2022-12-17T16:32:59.259Z,14.97
2022-12-17T16:35:28.493Z,14.17
2022-12-17T16:37:56.814Z,12.60
2022-12-17T16:40:25.215Z,11.57
2022-12-17T16:42:54.936Z,11.50
2022-12-17T16:45:23.498Z,12.53
2022-12-17T16:47:51.842Z,12.97
2022-12-17T16:50:20.421Z,15.73
2022-12-17T16:52:48.765Z,16.27
2022-12-17T16:55:17.265Z,18.80
2022-12-17T16:57:45.563Z,15.37
2022-12-17T17:00:16.227Z,16.83
2022-12-17T17:02:48.459Z,21.73
2022-12-17T17:05:19.917Z,22.50
2022-12-17T17:07:48.179Z,21.67
2022-12-17T17:10:16.754Z,18.47
2022-12-17T17:12:45.161Z,18.93
2022-12-17T17:15:14.964Z,15.77
2022-12-17T17:17:54.339Z,25.93
2022-12-17T17:20:24.571Z,28.47
2022-12-17T17:22:52.969Z,24.97
2022-12-17T17:25:22.267Z,22.53
2022-12-17T17:27:50.585Z,23.87
2022-12-17T17:30:20.629Z,23.70
2022-12-17T17:32:49.282Z,24.60
2022-12-17T17:35:17.812Z,27.43
2022-12-17T17:37:46.572Z,24.97
2022-12-17T17:40:15.368Z,21.77
2022-12-17T17:42:47.370Z,18.93
2022-12-17T17:45:22.003Z,17.63
2022-12-17T17:47:50.249Z,16.83
2022-12-17T17:50:18.825Z,16.60
2022-12-17T17:52:47.185Z,20.10
2022-12-17T17:55:15.808Z,18.33
2022-12-17T17:57:44.595Z,17.57
2022-12-17T18:00:13.932Z,17.47
2022-12-17T18:02:43.796Z,16.33
2022-12-17T18:05:12.245Z,16.43
2022-12-17T18:07:40.884Z,17.20
2022-12-17T18:10:10.426Z,13.30
2022-12-17T18:12:55.929Z,12.53
2022-12-17T18:15:24.708Z,12.33
2022-12-17T18:17:54.481Z,16.43
2022-12-17T18:20:23.120Z,18.53
2022-12-17T18:22:51.446Z,21.23
2022-12-17T18:25:19.941Z,20.07
2022-12-17T18:27:48.300Z,17.00
2022-12-17T18:30:17.436Z,13.37
2022-12-17T18:32:46.036Z,12.30
2022-12-17T18:35:15.844Z,13.47
2022-12-17T18:37:44.304Z,12.17
2022-12-17T18:40:13.125Z,9.47
2022-12-17T18:42:59.210Z,11.17
2022-12-17T18:45:27.581Z,10.10
2022-12-17T18:47:55.929Z,7.83
2022-12-17T18:50:25.794Z,9.77
2022-12-17T18:52:54.594Z,8.53
2022-12-17T18:55:23.054Z,7.47
2022-12-17T18:57:51.425Z,9.87
2022-12-17T19:00:20.797Z,9.07
2022-12-17T19:02:49.224Z,10.93
2022-12-17T19:05:18.023Z,11.27
2022-12-17T19:07:47.737Z,13.47
2022-12-17T19:10:16.446Z,10.33
2022-12-17T19:12:44.808Z,12.43
2022-12-17T19:15:13.145Z,8.90
2022-12-17T19:17:41.584Z,7.03
2022-12-17T19:20:11.460Z,7.50
2022-12-17T19:22:39.921Z,7.07
2022-12-17T19:25:11.487Z,6.50
2022-12-17T19:27:39.770Z,7.97
2022-12-17T19:30:09.715Z,6.17
2022-12-17T19:32:38.014Z,6.13
2022-12-17T19:35:07.412Z,7.27
2022-12-17T19:37:35.700Z,7.87
2022-12-17T19:40:04.322Z,8.03
2022-12-17T19:42:37.322Z,5.47
2022-12-17T19:45:06.930Z,6.70
2022-12-17T19:47:35.233Z,6.53
2022-12-17T19:50:03.550Z,7.13
2022-12-17T19:52:31.874Z,10.50
2022-12-17T19:55:00.169Z,11.23
2022-12-17T19:57:28.464Z,12.27
2022-12-17T19:59:58.276Z,8.53
2022-12-17T20:02:32.269Z,8.63
2022-12-17T20:05:01.882Z,10.70
2022-12-17T20:07:30.149Z,8.90
2022-12-17T20:09:58.634Z,8.27
2022-12-17T20:12:27.084Z,13.50
2022-12-17T20:14:55.575Z,14.90
2022-12-17T20:17:26.143Z,13.93
2022-12-17T20:19:57.980Z,15.70
2022-12-17T20:22:26.683Z,12.37
2022-12-17T20:24:55.047Z,10.97
2022-12-17T20:27:23.729Z,8.70
2022-12-17T20:29:52.009Z,8.77
2022-12-17T20:32:21.665Z,8.00
2022-12-17T20:34:51.689Z,9.77
2022-12-17T20:37:20.099Z,8.87
2022-12-17T20:39:59.871Z,7.67
2022-12-17T20:42:28.477Z,13.63
2022-12-17T20:44:56.993Z,23.27
2022-12-17T20:47:25.339Z,20.03
2022-12-17T20:49:55.127Z,20.10
2022-12-17T20:52:23.433Z,20.50
2022-12-17T20:54:51.762Z,26.17
2022-12-17T20:57:19.985Z,28.23
2022-12-17T20:59:48.431Z,22.47
2022-12-17T21:02:17.483Z,19.63
2022-12-17T21:04:46.011Z,16.70
2022-12-17T21:10:39.551Z,14.63
2022-12-17T21:13:25.416Z,11.93
2022-12-17T21:15:54.223Z,19.67
2022-12-17T21:18:23.273Z,21.50
2022-12-17T21:20:58.289Z,22.27
2022-12-17T21:23:29.300Z,23.83
2022-12-17T21:26:03.659Z,18.53
2022-12-17T21:28:39.980Z,13.57
2022-12-17T21:31:17.213Z,13.90
2022-12-17T21:33:45.964Z,13.20
2022-12-17T21:36:15.435Z,11.53
2022-12-17T21:38:45.598Z,9.87
2022-12-17T21:41:15.914Z,12.93
2022-12-17T21:44:06.993Z,15.93
2022-12-17T21:46:36.466Z,14.07
2022-12-17T21:49:05.954Z,13.67
2022-12-17T21:52:13.241Z,15.00
2022-12-17T21:55:20.385Z,14.60
2022-12-17T21:58:11.324Z,12.97
2022-12-17T22:00:39.718Z,11.60
2022-12-17T22:03:08.749Z,11.17
2022-12-17T22:05:37.695Z,9.30
2022-12-17T22:08:06.348Z,6.00
2022-12-17T22:10:37.147Z,6.10
2022-12-17T22:13:30.706Z,6.87
2022-12-17T22:15:59.060Z,9.93
2022-12-17T22:18:27.484Z,10.47
2022-12-17T22:21:00.136Z,11.03
2022-12-17T22:23:28.621Z,13.53
2022-12-17T22:25:58.667Z,12.50
2022-12-17T22:28:27.039Z,10.37
2022-12-17T22:31:12.812Z,9.57
2022-12-17T22:34:56.106Z,11.70
2022-12-17T22:38:58.832Z,9.47
2022-12-17T22:43:55.489Z,10.00
2022-12-17T22:44:37.805Z,7.43
2022-12-17T22:45:16.499Z,9.93
2022-12-17T22:47:45.297Z,6.37
2022-12-17T22:50:13.774Z,7.63
2022-12-17T22:52:42.693Z,5.97
2022-12-17T22:55:13.610Z,5.77
2022-12-17T22:57:43.858Z,6.93
2022-12-17T23:00:16.788Z,6.43
2022-12-17T23:02:45.379Z,7.93
2022-12-17T23:05:14.643Z,8.07
2022-12-17T23:07:42.992Z,6.07
2022-12-17T23:10:11.730Z,5.60
2022-12-17T23:12:52.100Z,6.90
2022-12-17T23:15:25.728Z,6.00
2022-12-17T23:17:56.259Z,5.20
2022-12-17T23:20:25.525Z,6.27
2022-12-17T23:22:53.919Z,5.47
2022-12-17T23:25:22.830Z,5.63
2022-12-17T23:27:51.369Z,5.50
2022-12-17T23:30:22.004Z,6.47
2022-12-17T23:32:50.783Z,7.43
2022-12-17T23:35:19.575Z,8.20
2022-12-17T23:37:47.842Z,6.30
2022-12-17T23:40:16.380Z,6.00
2022-12-17T23:42:45.223Z,5.13
2022-12-17T23:45:13.737Z,5.03
2022-12-17T23:47:43.357Z,7.53
2022-12-17T23:50:12.439Z,5.07
2022-12-17T23:52:41.213Z,5.73
2022-12-17T23:55:11.660Z,5.57
2022-12-17T23:57:40.085Z,6.00
